sensor_id;sensor_type;location;lat;lon;timestamp;temperature;humidity
27559;DHT22;15002;52.028;5.670;2023-07-24T00:02:02;21.60;99.90
27559;DHT22;15002;52.028;5.670;2023-07-24T00:04:30;21.70;99.90
27559;DHT22;15002;52.028;5.670;2023-07-24T00:06:56;21.60;99.90
27559;DHT22;15002;52.028;5.670;2023-07-24T00:09:22;21.60;99.90
27559;DHT22;15002;52.028;5.670;2023-07-24T00:11:47;21.70;99.90
27559;DHT22;15002;52.028;5.670;2023-07-24T00:14:13;21.70;99.90
27559;DHT22;15002;52.028;5.670;2023-07-24T00:16:40;21.80;99.90
27559;DHT22;15002;52.028;5.670;2023-07-24T00:19:05;21.80;99.90
27559;DHT22;15002;52.028;5.670;2023-07-24T00:21:31;21.70;99.90
27559;DHT22;15002;52.028;5.670;2023-07-24T00:23:56;21.60;99.90
27559;DHT22;15002;52.028;5.670;2023-07-24T00:26:22;21.50;99.90
27559;DHT22;15002;52.028;5.670;2023-07-24T00:28:48;21.50;99.90
27559;DHT22;15002;52.028;5.670;2023-07-24T00:31:13;21.50;99.90
27559;DHT22;15002;52.028;5.670;2023-07-24T00:33:39;21.50;99.90
27559;DHT22;15002;52.028;5.670;2023-07-24T00:36:04;21.40;99.90
27559;DHT22;15002;52.028;5.670;2023-07-24T00:38:30;21.40;99.90
27559;DHT22;15002;52.028;5.670;2023-07-24T00:40:56;21.50;99.90
27559;DHT22;15002;52.028;5.670;2023-07-24T00:43:21;21.40;99.90
27559;DHT22;15002;52.028;5.670;2023-07-24T00:45:47;21.50;99.90
27559;DHT22;15002;52.028;5.670;2023-07-24T00:48:14;21.60;99.90
27559;DHT22;15002;52.028;5.670;2023-07-24T00:50:42;21.60;99.90
27559;DHT22;15002;52.028;5.670;2023-07-24T00:53:08;21.50;99.90
27559;DHT22;15002;52.028;5.670;2023-07-24T00:55:33;21.50;99.90
27559;DHT22;15002;52.028;5.670;2023-07-24T00:58:00;21.60;99.90
27559;DHT22;15002;52.028;5.670;2023-07-24T01:00:26;21.60;99.90
27559;DHT22;15002;52.028;5.670;2023-07-24T01:02:52;21.50;99.90
27559;DHT22;15002;52.028;5.670;2023-07-24T01:05:19;21.60;99.90
27559;DHT22;15002;52.028;5.670;2023-07-24T01:07:45;21.60;99.90
27559;DHT22;15002;52.028;5.670;2023-07-24T01:10:11;21.50;99.90
27559;DHT22;15002;52.028;5.670;2023-07-24T01:15:18;21.50;99.90
27559;DHT22;15002;52.028;5.670;2023-07-24T01:17:50;21.40;99.90
27559;DHT22;15002;52.028;5.670;2023-07-24T01:20:19;21.50;99.90
27559;DHT22;15002;52.028;5.670;2023-07-24T01:23:07;21.40;99.90
27559;DHT22;15002;52.028;5.670;2023-07-24T01:26:11;21.50;99.90
27559;DHT22;15002;52.028;5.670;2023-07-24T01:28:30;21.40;99.90
27559;DHT22;15002;52.028;5.670;2023-07-24T01:30:56;21.50;99.90
27559;DHT22;15002;52.028;5.670;2023-07-24T01:33:23;21.40;99.90
27559;DHT22;15002;52.028;5.670;2023-07-24T01:35:53;21.70;99.90
27559;DHT22;15002;52.028;5.670;2023-07-24T01:38:19;21.80;99.90
27559;DHT22;15002;52.028;5.670;2023-07-24T01:40:46;21.70;99.90
27559;DHT22;15002;52.028;5.670;2023-07-24T01:43:13;21.50;99.90
27559;DHT22;15002;52.028;5.670;2023-07-24T01:45:39;21.60;99.90
27559;DHT22;15002;52.028;5.670;2023-07-24T01:48:05;21.60;99.90
27559;DHT22;15002;52.028;5.670;2023-07-24T01:50:31;21.70;99.90
27559;DHT22;15002;52.028;5.670;2023-07-24T01:52:57;21.80;99.90
27559;DHT22;15002;52.028;5.670;2023-07-24T01:55:22;21.60;99.90
27559;DHT22;15002;52.028;5.670;2023-07-24T01:57:48;21.40;99.90
27559;DHT22;15002;52.028;5.670;2023-07-24T02:00:14;21.30;99.90
27559;DHT22;15002;52.028;5.670;2023-07-24T02:02:39;21.20;99.90
27559;DHT22;15002;52.028;5.670;2023-07-24T02:05:05;21.30;99.90
27559;DHT22;15002;52.028;5.670;2023-07-24T02:07:31;21.20;99.90
27559;DHT22;15002;52.028;5.670;2023-07-24T02:09:56;21.20;99.90
27559;DHT22;15002;52.028;5.670;2023-07-24T02:12:22;21.30;99.90
27559;DHT22;15002;52.028;5.670;2023-07-24T02:14:48;21.40;99.90
27559;DHT22;15002;52.028;5.670;2023-07-24T02:17:15;21.50;99.90
27559;DHT22;15002;52.028;5.670;2023-07-24T02:19:41;21.40;99.90
27559;DHT22;15002;52.028;5.670;2023-07-24T02:22:07;21.40;99.90
27559;DHT22;15002;52.028;5.670;2023-07-24T02:24:32;21.50;99.90
27559;DHT22;15002;52.028;5.670;2023-07-24T02:26:58;21.40;99.90
27559;DHT22;15002;52.028;5.670;2023-07-24T02:29:24;21.50;99.90
27559;DHT22;15002;52.028;5.670;2023-07-24T02:31:50;21.40;99.90
27559;DHT22;15002;52.028;5.670;2023-07-24T02:34:16;21.30;99.90
27559;DHT22;15002;52.028;5.670;2023-07-24T02:36:41;21.20;99.90
27559;DHT22;15002;52.028;5.670;2023-07-24T02:39:07;21.10;99.90
27559;DHT22;15002;52.028;5.670;2023-07-24T02:41:33;21.30;99.90
27559;DHT22;15002;52.028;5.670;2023-07-24T02:43:59;21.20;99.90
27559;DHT22;15002;52.028;5.670;2023-07-24T02:46:24;21.10;99.90
27559;DHT22;15002;52.028;5.670;2023-07-24T02:48:51;21.10;99.90
27559;DHT22;15002;52.028;5.670;2023-07-24T02:51:17;21.00;99.90
27559;DHT22;15002;52.028;5.670;2023-07-24T02:53:43;21.00;99.90
27559;DHT22;15002;52.028;5.670;2023-07-24T02:56:08;21.00;99.90
27559;DHT22;15002;52.028;5.670;2023-07-24T02:58:34;21.00;99.90
27559;DHT22;15002;52.028;5.670;2023-07-24T03:01:07;21.00;99.90
27559;DHT22;15002;52.028;5.670;2023-07-24T03:03:33;21.00;99.90
27559;DHT22;15002;52.028;5.670;2023-07-24T03:05:59;21.10;99.90
27559;DHT22;15002;52.028;5.670;2023-07-24T03:08:25;21.20;99.90
27559;DHT22;15002;52.028;5.670;2023-07-24T03:10:50;21.10;99.90
27559;DHT22;15002;52.028;5.670;2023-07-24T03:13:16;21.10;99.90
27559;DHT22;15002;52.028;5.670;2023-07-24T03:15:42;21.00;99.90
27559;DHT22;15002;52.028;5.670;2023-07-24T03:18:07;21.10;99.90
27559;DHT22;15002;52.028;5.670;2023-07-24T03:20:33;21.10;99.90
27559;DHT22;15002;52.028;5.670;2023-07-24T03:22:59;21.00;99.90
27559;DHT22;15002;52.028;5.670;2023-07-24T03:25:24;21.00;99.90
27559;DHT22;15002;52.028;5.670;2023-07-24T03:27:50;21.00;99.90
27559;DHT22;15002;52.028;5.670;2023-07-24T03:30:16;21.00;99.90
27559;DHT22;15002;52.028;5.670;2023-07-24T03:32:41;21.00;99.90
27559;DHT22;15002;52.028;5.670;2023-07-24T03:35:07;21.00;99.90
27559;DHT22;15002;52.028;5.670;2023-07-24T03:37:34;21.00;99.90
27559;DHT22;15002;52.028;5.670;2023-07-24T03:40:01;21.00;99.90
27559;DHT22;15002;52.028;5.670;2023-07-24T03:42:28;20.90;99.90
27559;DHT22;15002;52.028;5.670;2023-07-24T03:44:55;20.90;99.90
27559;DHT22;15002;52.028;5.670;2023-07-24T03:47:21;20.90;99.90
27559;DHT22;15002;52.028;5.670;2023-07-24T03:49:46;20.90;99.90
27559;DHT22;15002;52.028;5.670;2023-07-24T03:52:12;21.00;99.90
27559;DHT22;15002;52.028;5.670;2023-07-24T03:54:38;20.90;99.90
27559;DHT22;15002;52.028;5.670;2023-07-24T03:57:04;20.90;99.90
27559;DHT22;15002;52.028;5.670;2023-07-24T03:59:30;20.90;99.90
27559;DHT22;15002;52.028;5.670;2023-07-24T04:01:56;20.90;99.90
27559;DHT22;15002;52.028;5.670;2023-07-24T04:04:21;20.80;99.90
27559;DHT22;15002;52.028;5.670;2023-07-24T04:06:47;20.90;99.90
27559;DHT22;15002;52.028;5.670;2023-07-24T04:09:13;20.80;99.90
27559;DHT22;15002;52.028;5.670;2023-07-24T04:11:42;20.80;99.90
27559;DHT22;15002;52.028;5.670;2023-07-24T04:14:08;20.80;99.90
27559;DHT22;15002;52.028;5.670;2023-07-24T04:16:34;20.70;99.90
27559;DHT22;15002;52.028;5.670;2023-07-24T04:18:59;20.70;99.90
27559;DHT22;15002;52.028;5.670;2023-07-24T04:21:25;20.70;99.90
27559;DHT22;15002;52.028;5.670;2023-07-24T04:23:51;20.80;99.90
27559;DHT22;15002;52.028;5.670;2023-07-24T04:26:16;20.70;99.90
27559;DHT22;15002;52.028;5.670;2023-07-24T04:28:42;20.80;99.90
27559;DHT22;15002;52.028;5.670;2023-07-24T04:31:07;20.80;99.90
27559;DHT22;15002;52.028;5.670;2023-07-24T04:33:33;20.80;99.90
27559;DHT22;15002;52.028;5.670;2023-07-24T04:35:59;20.80;99.90
27559;DHT22;15002;52.028;5.670;2023-07-24T04:38:25;20.80;99.90
27559;DHT22;15002;52.028;5.670;2023-07-24T04:40:50;20.70;99.90
27559;DHT22;15002;52.028;5.670;2023-07-24T04:43:16;20.70;99.90
27559;DHT22;15002;52.028;5.670;2023-07-24T04:45:41;20.70;99.90
27559;DHT22;15002;52.028;5.670;2023-07-24T04:48:07;20.70;99.90
27559;DHT22;15002;52.028;5.670;2023-07-24T04:50:33;20.70;99.90
27559;DHT22;15002;52.028;5.670;2023-07-24T04:52:58;20.80;99.90
27559;DHT22;15002;52.028;5.670;2023-07-24T04:55:24;20.70;99.90
27559;DHT22;15002;52.028;5.670;2023-07-24T04:57:50;20.60;99.90
27559;DHT22;15002;52.028;5.670;2023-07-24T05:00:16;20.60;99.90
27559;DHT22;15002;52.028;5.670;2023-07-24T05:02:41;20.70;99.90
27559;DHT22;15002;52.028;5.670;2023-07-24T05:05:07;20.70;99.90
27559;DHT22;15002;52.028;5.670;2023-07-24T05:07:33;20.70;99.90
27559;DHT22;15002;52.028;5.670;2023-07-24T05:09:59;20.70;99.90
27559;DHT22;15002;52.028;5.670;2023-07-24T05:12:25;20.80;99.90
27559;DHT22;15002;52.028;5.670;2023-07-24T05:14:50;20.70;99.90
27559;DHT22;15002;52.028;5.670;2023-07-24T05:17:16;20.70;99.90
27559;DHT22;15002;52.028;5.670;2023-07-24T05:19:42;20.70;99.90
27559;DHT22;15002;52.028;5.670;2023-07-24T05:22:07;20.70;99.90
27559;DHT22;15002;52.028;5.670;2023-07-24T05:24:36;20.70;99.90
27559;DHT22;15002;52.028;5.670;2023-07-24T05:27:06;20.70;99.90
27559;DHT22;15002;52.028;5.670;2023-07-24T05:29:32;20.80;99.90
27559;DHT22;15002;52.028;5.670;2023-07-24T05:31:57;20.80;99.90
27559;DHT22;15002;52.028;5.670;2023-07-24T05:34:24;20.90;99.90
27559;DHT22;15002;52.028;5.670;2023-07-24T05:36:50;20.90;99.90
27559;DHT22;15002;52.028;5.670;2023-07-24T05:39:15;21.00;99.90
27559;DHT22;15002;52.028;5.670;2023-07-24T05:41:41;21.00;99.90
27559;DHT22;15002;52.028;5.670;2023-07-24T05:44:07;21.00;99.90
27559;DHT22;15002;52.028;5.670;2023-07-24T05:46:32;21.00;99.90
27559;DHT22;15002;52.028;5.670;2023-07-24T05:48:58;21.10;99.90
27559;DHT22;15002;52.028;5.670;2023-07-24T05:51:26;21.00;99.90
27559;DHT22;15002;52.028;5.670;2023-07-24T05:53:51;21.00;99.90
27559;DHT22;15002;52.028;5.670;2023-07-24T05:56:17;21.10;99.90
27559;DHT22;15002;52.028;5.670;2023-07-24T05:58:42;21.10;99.90
27559;DHT22;15002;52.028;5.670;2023-07-24T06:01:08;21.10;99.90
27559;DHT22;15002;52.028;5.670;2023-07-24T06:03:36;21.10;99.90
27559;DHT22;15002;52.028;5.670;2023-07-24T06:06:02;21.20;99.90
27559;DHT22;15002;52.028;5.670;2023-07-24T06:08:27;21.20;99.90
27559;DHT22;15002;52.028;5.670;2023-07-24T06:10:53;21.20;99.90
27559;DHT22;15002;52.028;5.670;2023-07-24T06:13:19;21.40;99.90
27559;DHT22;15002;52.028;5.670;2023-07-24T06:15:47;21.40;99.90
27559;DHT22;15002;52.028;5.670;2023-07-24T06:18:12;21.40;99.90
27559;DHT22;15002;52.028;5.670;2023-07-24T06:20:38;21.30;99.90
27559;DHT22;15002;52.028;5.670;2023-07-24T06:23:04;21.40;99.90
27559;DHT22;15002;52.028;5.670;2023-07-24T06:25:30;21.50;99.90
27559;DHT22;15002;52.028;5.670;2023-07-24T06:27:56;21.60;99.90
27559;DHT22;15002;52.028;5.670;2023-07-24T06:30:22;21.60;99.90
27559;DHT22;15002;52.028;5.670;2023-07-24T06:32:48;21.70;99.90
27559;DHT22;15002;52.028;5.670;2023-07-24T06:35:13;21.70;99.90
27559;DHT22;15002;52.028;5.670;2023-07-24T06:37:39;21.80;99.90
27559;DHT22;15002;52.028;5.670;2023-07-24T06:40:08;22.00;99.90
27559;DHT22;15002;52.028;5.670;2023-07-24T06:42:34;22.30;99.90
27559;DHT22;15002;52.028;5.670;2023-07-24T06:45:00;22.60;99.90
27559;DHT22;15002;52.028;5.670;2023-07-24T06:47:25;22.80;99.90
27559;DHT22;15002;52.028;5.670;2023-07-24T06:49:51;22.80;99.90
27559;DHT22;15002;52.028;5.670;2023-07-24T06:52:17;22.80;99.90
27559;DHT22;15002;52.028;5.670;2023-07-24T06:54:43;22.80;99.90
27559;DHT22;15002;52.028;5.670;2023-07-24T06:57:08;22.70;99.90
27559;DHT22;15002;52.028;5.670;2023-07-24T06:59:34;22.80;99.90
27559;DHT22;15002;52.028;5.670;2023-07-24T07:01:59;23.00;99.90
27559;DHT22;15002;52.028;5.670;2023-07-24T07:04:25;23.20;99.90
27559;DHT22;15002;52.028;5.670;2023-07-24T07:06:51;23.50;99.90
27559;DHT22;15002;52.028;5.670;2023-07-24T07:09:16;23.60;99.90
27559;DHT22;15002;52.028;5.670;2023-07-24T07:11:42;23.90;99.90
27559;DHT22;15002;52.028;5.670;2023-07-24T07:14:11;23.90;99.90
27559;DHT22;15002;52.028;5.670;2023-07-24T07:16:36;23.80;99.90
27559;DHT22;15002;52.028;5.670;2023-07-24T07:19:02;23.60;99.90
27559;DHT22;15002;52.028;5.670;2023-07-24T07:21:28;23.90;99.90
27559;DHT22;15002;52.028;5.670;2023-07-24T07:23:53;24.50;99.90
27559;DHT22;15002;52.028;5.670;2023-07-24T07:26:20;24.60;99.90
27559;DHT22;15002;52.028;5.670;2023-07-24T07:28:45;24.50;99.90
27559;DHT22;15002;52.028;5.670;2023-07-24T07:31:11;24.50;99.90
27559;DHT22;15002;52.028;5.670;2023-07-24T07:33:37;24.50;99.90
27559;DHT22;15002;52.028;5.670;2023-07-24T07:36:02;24.70;99.90
27559;DHT22;15002;52.028;5.670;2023-07-24T07:38:30;24.90;99.90
27559;DHT22;15002;52.028;5.670;2023-07-24T07:40:55;25.60;99.90
27559;DHT22;15002;52.028;5.670;2023-07-24T07:43:21;25.80;99.90
27559;DHT22;15002;52.028;5.670;2023-07-24T07:45:47;26.20;99.90
27559;DHT22;15002;52.028;5.670;2023-07-24T07:48:13;26.10;99.90
27559;DHT22;15002;52.028;5.670;2023-07-24T07:50:39;26.00;99.90
27559;DHT22;15002;52.028;5.670;2023-07-24T07:53:04;25.60;99.90
27559;DHT22;15002;52.028;5.670;2023-07-24T07:55:30;25.40;99.90
27559;DHT22;15002;52.028;5.670;2023-07-24T07:57:56;24.90;99.90
27559;DHT22;15002;52.028;5.670;2023-07-24T08:00:21;24.50;99.90
27559;DHT22;15002;52.028;5.670;2023-07-24T08:02:47;24.10;99.90
27559;DHT22;15002;52.028;5.670;2023-07-24T08:05:13;23.90;99.90
27559;DHT22;15002;52.028;5.670;2023-07-24T08:07:39;23.70;99.90
27559;DHT22;15002;52.028;5.670;2023-07-24T08:10:05;23.90;99.90
27559;DHT22;15002;52.028;5.670;2023-07-24T08:12:32;23.90;99.90
27559;DHT22;15002;52.028;5.670;2023-07-24T08:14:57;23.80;99.90
27559;DHT22;15002;52.028;5.670;2023-07-24T08:17:23;23.80;99.90
27559;DHT22;15002;52.028;5.670;2023-07-24T08:19:49;24.30;99.90
27559;DHT22;15002;52.028;5.670;2023-07-24T08:22:14;24.80;99.90
27559;DHT22;15002;52.028;5.670;2023-07-24T08:24:40;25.30;99.90
27559;DHT22;15002;52.028;5.670;2023-07-24T08:27:06;25.70;99.90
27559;DHT22;15002;52.028;5.670;2023-07-24T08:29:32;25.80;99.90
27559;DHT22;15002;52.028;5.670;2023-07-24T08:31:58;25.90;99.90
27559;DHT22;15002;52.028;5.670;2023-07-24T08:34:24;25.70;99.90
27559;DHT22;15002;52.028;5.670;2023-07-24T08:36:50;25.40;99.90
27559;DHT22;15002;52.028;5.670;2023-07-24T08:39:15;25.20;99.90
27559;DHT22;15002;52.028;5.670;2023-07-24T08:41:41;25.00;99.90
27559;DHT22;15002;52.028;5.670;2023-07-24T08:44:08;24.90;99.90
27559;DHT22;15002;52.028;5.670;2023-07-24T08:46:37;24.80;99.90
27559;DHT22;15002;52.028;5.670;2023-07-24T08:49:04;24.90;99.90
27559;DHT22;15002;52.028;5.670;2023-07-24T08:51:31;25.40;99.90
27559;DHT22;15002;52.028;5.670;2023-07-24T08:53:59;25.40;99.90
27559;DHT22;15002;52.028;5.670;2023-07-24T08:56:24;25.30;99.90
27559;DHT22;15002;52.028;5.670;2023-07-24T08:58:50;25.50;99.90
27559;DHT22;15002;52.028;5.670;2023-07-24T09:01:16;25.00;99.90
27559;DHT22;15002;52.028;5.670;2023-07-24T09:03:41;24.70;99.90
27559;DHT22;15002;52.028;5.670;2023-07-24T09:06:07;24.70;99.90
27559;DHT22;15002;52.028;5.670;2023-07-24T09:08:38;24.90;99.90
27559;DHT22;15002;52.028;5.670;2023-07-24T09:11:04;25.20;99.90
27559;DHT22;15002;52.028;5.670;2023-07-24T09:13:31;25.40;99.90
27559;DHT22;15002;52.028;5.670;2023-07-24T09:15:57;25.60;99.90
27559;DHT22;15002;52.028;5.670;2023-07-24T09:18:23;25.90;99.90
27559;DHT22;15002;52.028;5.670;2023-07-24T09:20:49;26.10;99.90
27559;DHT22;15002;52.028;5.670;2023-07-24T09:23:15;26.00;99.90
27559;DHT22;15002;52.028;5.670;2023-07-24T09:25:42;26.30;99.90
27559;DHT22;15002;52.028;5.670;2023-07-24T09:28:13;26.70;99.90
27559;DHT22;15002;52.028;5.670;2023-07-24T09:30:40;26.60;99.90
27559;DHT22;15002;52.028;5.670;2023-07-24T09:33:06;26.90;99.90
27559;DHT22;15002;52.028;5.670;2023-07-24T09:35:32;26.50;99.90
27559;DHT22;15002;52.028;5.670;2023-07-24T09:38:09;26.30;99.90
27559;DHT22;15002;52.028;5.670;2023-07-24T09:40:43;26.40;99.90
27559;DHT22;15002;52.028;5.670;2023-07-24T09:45:46;26.40;99.90
27559;DHT22;15002;52.028;5.670;2023-07-24T09:48:13;26.70;99.90
27559;DHT22;15002;52.028;5.670;2023-07-24T09:50:40;26.30;99.90
27559;DHT22;15002;52.028;5.670;2023-07-24T09:53:13;26.30;99.90
27559;DHT22;15002;52.028;5.670;2023-07-24T09:56:03;26.10;99.90
27559;DHT22;15002;52.028;5.670;2023-07-24T09:58:31;26.10;99.90
27559;DHT22;15002;52.028;5.670;2023-07-24T10:00:57;25.80;99.90
27559;DHT22;15002;52.028;5.670;2023-07-24T10:03:24;25.60;99.90
27559;DHT22;15002;52.028;5.670;2023-07-24T10:05:50;25.40;99.90
27559;DHT22;15002;52.028;5.670;2023-07-24T10:08:19;25.60;99.90
27559;DHT22;15002;52.028;5.670;2023-07-24T10:10:45;25.60;99.90
27559;DHT22;15002;52.028;5.670;2023-07-24T10:13:12;25.70;99.90
27559;DHT22;15002;52.028;5.670;2023-07-24T10:15:41;25.50;99.90
27559;DHT22;15002;52.028;5.670;2023-07-24T10:18:09;25.50;99.90
27559;DHT22;15002;52.028;5.670;2023-07-24T10:20:36;25.30;99.90
27559;DHT22;15002;52.028;5.670;2023-07-24T10:23:03;25.20;99.90
27559;DHT22;15002;52.028;5.670;2023-07-24T10:25:30;25.20;99.90
27559;DHT22;15002;52.028;5.670;2023-07-24T10:28:04;25.00;99.90
27559;DHT22;15002;52.028;5.670;2023-07-24T10:30:33;25.00;99.90
27559;DHT22;15002;52.028;5.670;2023-07-24T10:35:45;25.10;99.90
27559;DHT22;15002;52.028;5.670;2023-07-24T10:38:13;25.00;99.90
27559;DHT22;15002;52.028;5.670;2023-07-24T10:40:40;25.40;99.90
27559;DHT22;15002;52.028;5.670;2023-07-24T10:43:14;25.60;99.90
27559;DHT22;15002;52.028;5.670;2023-07-24T10:45:53;25.70;99.90
27559;DHT22;15002;52.028;5.670;2023-07-24T10:48:21;25.70;99.90
27559;DHT22;15002;52.028;5.670;2023-07-24T10:50:49;25.70;99.90
27559;DHT22;15002;52.028;5.670;2023-07-24T10:53:19;25.60;99.90
27559;DHT22;15002;52.028;5.670;2023-07-24T10:55:47;25.60;99.90
27559;DHT22;15002;52.028;5.670;2023-07-24T10:58:13;25.30;99.90
27559;DHT22;15002;52.028;5.670;2023-07-24T11:00:40;25.30;99.90
27559;DHT22;15002;52.028;5.670;2023-07-24T11:03:12;25.30;99.90
27559;DHT22;15002;52.028;5.670;2023-07-24T11:05:42;25.20;99.90
27559;DHT22;15002;52.028;5.670;2023-07-24T11:08:15;25.20;99.90
27559;DHT22;15002;52.028;5.670;2023-07-24T11:13:20;25.20;99.90
27559;DHT22;15002;52.028;5.670;2023-07-24T11:15:46;25.60;99.90
27559;DHT22;15002;52.028;5.670;2023-07-24T11:18:12;26.00;99.90
27559;DHT22;15002;52.028;5.670;2023-07-24T11:20:50;25.90;99.90
27559;DHT22;15002;52.028;5.670;2023-07-24T11:23:16;25.60;99.90
27559;DHT22;15002;52.028;5.670;2023-07-24T11:25:42;25.70;99.90
27559;DHT22;15002;52.028;5.670;2023-07-24T11:28:10;25.60;99.90
27559;DHT22;15002;52.028;5.670;2023-07-24T11:30:36;25.80;99.90
27559;DHT22;15002;52.028;5.670;2023-07-24T11:33:03;25.80;99.90
27559;DHT22;15002;52.028;5.670;2023-07-24T11:35:30;25.70;99.90
27559;DHT22;15002;52.028;5.670;2023-07-24T11:37:56;25.90;99.90
27559;DHT22;15002;52.028;5.670;2023-07-24T11:40:37;25.90;99.90
27559;DHT22;15002;52.028;5.670;2023-07-24T11:43:03;25.70;99.90
27559;DHT22;15002;52.028;5.670;2023-07-24T11:45:42;25.90;99.90
27559;DHT22;15002;52.028;5.670;2023-07-24T11:48:12;26.10;99.90
27559;DHT22;15002;52.028;5.670;2023-07-24T11:50:47;25.90;99.90
27559;DHT22;15002;52.028;5.670;2023-07-24T11:56:14;25.50;99.90
27559;DHT22;15002;52.028;5.670;2023-07-24T11:58:40;25.70;99.90
27559;DHT22;15002;52.028;5.670;2023-07-24T12:01:05;25.40;99.90
27559;DHT22;15002;52.028;5.670;2023-07-24T12:03:31;25.20;99.90
27559;DHT22;15002;52.028;5.670;2023-07-24T12:05:57;25.20;99.90
27559;DHT22;15002;52.028;5.670;2023-07-24T12:08:31;25.40;99.90
27559;DHT22;15002;52.028;5.670;2023-07-24T12:10:58;25.30;99.90
27559;DHT22;15002;52.028;5.670;2023-07-24T12:13:24;25.30;99.90
27559;DHT22;15002;52.028;5.670;2023-07-24T12:15:49;24.90;99.90
27559;DHT22;15002;52.028;5.670;2023-07-24T12:18:15;24.70;99.90
27559;DHT22;15002;52.028;5.670;2023-07-24T12:20:41;24.50;99.90
27559;DHT22;15002;52.028;5.670;2023-07-24T12:23:06;24.50;99.90
27559;DHT22;15002;52.028;5.670;2023-07-24T12:25:32;24.40;99.90
27559;DHT22;15002;52.028;5.670;2023-07-24T12:27:58;24.20;99.90
27559;DHT22;15002;52.028;5.670;2023-07-24T12:30:23;24.10;99.90
27559;DHT22;15002;52.028;5.670;2023-07-24T12:32:49;24.20;99.90
27559;DHT22;15002;52.028;5.670;2023-07-24T12:35:15;24.10;99.90
27559;DHT22;15002;52.028;5.670;2023-07-24T12:37:41;24.00;99.90
27559;DHT22;15002;52.028;5.670;2023-07-24T12:40:08;24.10;99.90
27559;DHT22;15002;52.028;5.670;2023-07-24T12:42:34;23.90;99.90
27559;DHT22;15002;52.028;5.670;2023-07-24T12:45:00;23.90;99.90
27559;DHT22;15002;52.028;5.670;2023-07-24T12:47:28;24.00;99.90
27559;DHT22;15002;52.028;5.670;2023-07-24T12:49:53;23.90;99.90
27559;DHT22;15002;52.028;5.670;2023-07-24T12:52:21;24.00;99.90
27559;DHT22;15002;52.028;5.670;2023-07-24T12:54:46;24.20;99.90
27559;DHT22;15002;52.028;5.670;2023-07-24T12:57:12;24.20;99.90
27559;DHT22;15002;52.028;5.670;2023-07-24T12:59:38;24.40;99.90
27559;DHT22;15002;52.028;5.670;2023-07-24T13:02:03;24.50;99.90
27559;DHT22;15002;52.028;5.670;2023-07-24T13:04:29;24.90;99.90
27559;DHT22;15002;52.028;5.670;2023-07-24T13:06:55;25.00;99.90
27559;DHT22;15002;52.028;5.670;2023-07-24T13:09:20;25.10;99.90
27559;DHT22;15002;52.028;5.670;2023-07-24T13:11:46;25.00;99.90
27559;DHT22;15002;52.028;5.670;2023-07-24T13:14:14;25.10;99.90
27559;DHT22;15002;52.028;5.670;2023-07-24T13:16:40;25.10;99.90
27559;DHT22;15002;52.028;5.670;2023-07-24T13:19:06;25.20;99.90
27559;DHT22;15002;52.028;5.670;2023-07-24T13:21:31;24.90;99.90
27559;DHT22;15002;52.028;5.670;2023-07-24T13:23:57;25.20;99.90
27559;DHT22;15002;52.028;5.670;2023-07-24T13:26:22;24.90;99.90
27559;DHT22;15002;52.028;5.670;2023-07-24T13:28:48;25.30;99.90
27559;DHT22;15002;52.028;5.670;2023-07-24T13:31:19;25.50;99.90
27559;DHT22;15002;52.028;5.670;2023-07-24T13:33:45;25.20;99.90
27559;DHT22;15002;52.028;5.670;2023-07-24T13:36:11;25.30;99.90
27559;DHT22;15002;52.028;5.670;2023-07-24T13:38:36;25.30;99.90
27559;DHT22;15002;52.028;5.670;2023-07-24T13:41:03;25.20;99.90
27559;DHT22;15002;52.028;5.670;2023-07-24T13:43:30;25.40;99.90
27559;DHT22;15002;52.028;5.670;2023-07-24T13:45:56;25.30;99.90
27559;DHT22;15002;52.028;5.670;2023-07-24T13:48:22;25.20;99.90
27559;DHT22;15002;52.028;5.670;2023-07-24T13:50:47;25.50;99.90
27559;DHT22;15002;52.028;5.670;2023-07-24T13:53:13;25.50;99.90
27559;DHT22;15002;52.028;5.670;2023-07-24T13:55:39;25.60;99.90
27559;DHT22;15002;52.028;5.670;2023-07-24T13:58:04;25.70;99.90
27559;DHT22;15002;52.028;5.670;2023-07-24T14:00:30;25.80;99.90
27559;DHT22;15002;52.028;5.670;2023-07-24T14:02:56;25.80;99.90
27559;DHT22;15002;52.028;5.670;2023-07-24T14:05:21;25.60;99.90
27559;DHT22;15002;52.028;5.670;2023-07-24T14:07:47;25.40;99.90
27559;DHT22;15002;52.028;5.670;2023-07-24T14:10:12;25.50;99.90
27559;DHT22;15002;52.028;5.670;2023-07-24T14:12:38;25.60;99.90
27559;DHT22;15002;52.028;5.670;2023-07-24T14:15:04;25.40;99.90
27559;DHT22;15002;52.028;5.670;2023-07-24T14:17:30;25.40;99.90
27559;DHT22;15002;52.028;5.670;2023-07-24T14:19:55;25.30;99.90
27559;DHT22;15002;52.028;5.670;2023-07-24T14:22:21;25.10;99.90
27559;DHT22;15002;52.028;5.670;2023-07-24T14:24:47;24.60;99.90
27559;DHT22;15002;52.028;5.670;2023-07-24T14:27:13;24.50;99.90
27559;DHT22;15002;52.028;5.670;2023-07-24T14:29:39;24.50;99.90
27559;DHT22;15002;52.028;5.670;2023-07-24T14:32:06;24.30;99.90
27559;DHT22;15002;52.028;5.670;2023-07-24T14:34:31;24.40;99.90
27559;DHT22;15002;52.028;5.670;2023-07-24T14:36:57;24.50;99.90
27559;DHT22;15002;52.028;5.670;2023-07-24T14:39:23;24.50;99.90
27559;DHT22;15002;52.028;5.670;2023-07-24T14:41:49;24.60;99.90
27559;DHT22;15002;52.028;5.670;2023-07-24T14:44:14;24.60;99.90
27559;DHT22;15002;52.028;5.670;2023-07-24T14:46:40;24.40;99.90
27559;DHT22;15002;52.028;5.670;2023-07-24T14:49:05;24.30;99.90
27559;DHT22;15002;52.028;5.670;2023-07-24T14:51:31;24.30;99.90
27559;DHT22;15002;52.028;5.670;2023-07-24T14:53:56;24.50;99.90
27559;DHT22;15002;52.028;5.670;2023-07-24T14:56:22;24.20;99.90
27559;DHT22;15002;52.028;5.670;2023-07-24T14:58:48;24.10;99.90
27559;DHT22;15002;52.028;5.670;2023-07-24T15:01:13;24.00;99.90
27559;DHT22;15002;52.028;5.670;2023-07-24T15:03:39;24.10;99.90
27559;DHT22;15002;52.028;5.670;2023-07-24T15:06:04;23.90;99.90
27559;DHT22;15002;52.028;5.670;2023-07-24T15:08:32;24.00;99.90
27559;DHT22;15002;52.028;5.670;2023-07-24T15:10:58;24.00;99.90
27559;DHT22;15002;52.028;5.670;2023-07-24T15:13:24;24.00;99.90
27559;DHT22;15002;52.028;5.670;2023-07-24T15:15:49;23.80;99.90
27559;DHT22;15002;52.028;5.670;2023-07-24T15:18:15;23.80;99.90
27559;DHT22;15002;52.028;5.670;2023-07-24T15:20:41;23.70;99.90
27559;DHT22;15002;52.028;5.670;2023-07-24T15:23:06;23.80;99.90
27559;DHT22;15002;52.028;5.670;2023-07-24T15:25:32;24.20;99.90
27559;DHT22;15002;52.028;5.670;2023-07-24T15:27:58;23.90;99.90
27559;DHT22;15002;52.028;5.670;2023-07-24T15:30:24;24.10;99.90
27559;DHT22;15002;52.028;5.670;2023-07-24T15:32:50;24.20;99.90
27559;DHT22;15002;52.028;5.670;2023-07-24T15:35:15;24.10;99.90
27559;DHT22;15002;52.028;5.670;2023-07-24T15:37:41;24.20;99.90
27559;DHT22;15002;52.028;5.670;2023-07-24T15:40:07;24.30;99.90